Time;durP1;ratioP1;P1;durP2;ratioP2;P2;SDS_P1;SDS_P2;PMS_P1;PMS_P2;Temp;Humidity;BMP_temperature;BMP_pressure;BME280_temperature;BME280_humidity;BME280_pressure;Samples;Min_cycle;Max_cycle;Signal;HPM_P1;HPM_P2
2021/09/09 00:00:55;;;;;;;9.70;5.60;;;;;;;;;;5060626;28;20082;-83
2021/09/09 00:03:22;;;;;;;8.18;4.88;;;;;;;;;;5079909;28;20034;-84
2021/09/09 00:05:48;;;;;;;15.55;5.88;;;;;;;;;;5079862;28;20028;-83
2021/09/09 00:08:14;;;;;;;8.57;5.32;;;;;;;;;;5060674;28;20359;-83
2021/09/09 00:10:40;;;;;;;12.15;5.70;;;23.20;73.50;;;;;;5043326;28;20036;-83
2021/09/09 00:13:05;;;;;;;8.35;5.45;;;17.50;99.90;;;;;;5079363;28;20027;-83
2021/09/09 00:15:31;;;;;;;8.77;5.65;;;17.40;99.90;;;;;;5079960;28;20033;-83
2021/09/09 00:17:57;;;;;;;7.40;5.75;;;17.60;99.90;;;;;;5079482;28;20103;-83
2021/09/09 00:20:23;;;;;;;7.07;5.85;;;;;;;;;;5041359;28;20033;-83
2021/09/09 00:22:49;;;;;;;8.43;5.57;;;;;;;;;;5060472;28;20123;-83
2021/09/09 00:25:15;;;;;;;7.32;5.28;;;;;;;;;;5079098;28;20024;-83
2021/09/09 00:27:41;;;;;;;7.57;5.45;;;;;;;;;;5079193;28;20427;-83
2021/09/09 00:30:08;;;;;;;9.10;6.32;;;;;;;;;;5097248;28;20036;-83
2021/09/09 00:32:34;;;;;;;7.40;5.57;;;;;;;;;;5079235;28;20027;-83
2021/09/09 00:35:01;;;;;;;9.43;6.18;;;;;;;;;;5076504;28;20036;-83
2021/09/09 00:37:26;;;;;;;9.00;5.63;;;16.90;99.90;;;;;;5076902;28;20074;-83
2021/09/09 00:39:52;;;;;;;8.43;5.32;;;16.70;99.90;;;;;;5041428;28;20029;-83
2021/09/09 00:42:18;;;;;;;7.25;5.65;;;;;;;;;;5071871;28;20031;-83
2021/09/09 00:44:44;;;;;;;9.23;6.03;;;;;;;;;;5076970;28;20527;-83
2021/09/09 00:47:11;;;;;;;9.68;6.22;;;;;;;;;;5077349;28;20033;-83
2021/09/09 00:49:39;;;;;;;7.95;6.00;;;;;;;;;;5075838;28;20504;-83
2021/09/09 00:52:05;;;;;;;9.80;6.32;;;;;;;;;;5076556;28;20554;-82
2021/09/09 00:54:32;;;;;;;9.80;5.90;;;;;;;;;;5076529;28;20021;-83
2021/09/09 00:56:58;;;;;;;11.70;5.82;;;;;;;;;;5063610;28;20029;-83
2021/09/09 00:59:27;;;;;;;11.65;5.90;;;;;;;;;;5055195;28;20041;-83
2021/09/09 01:01:53;;;;;;;7.72;5.63;;;;;;;;;;5068082;28;20032;-83
2021/09/09 01:04:20;;;;;;;9.95;5.95;;;;;;;;;;5058825;28;20032;-83
2021/09/09 01:06:46;;;;;;;6.60;5.47;;;;;;;;;;5076410;28;20024;-83
2021/09/09 01:09:12;;;;;;;9.70;5.97;;;;;;;;;;5075419;28;20415;-83
2021/09/09 01:11:38;;;;;;;7.78;5.75;;;;;;;;;;5057240;28;20035;-83
2021/09/09 01:14:06;;;;;;;8.82;6.40;;;;;;;;;;5076572;28;20040;-83
2021/09/09 01:16:32;;;;;;;8.38;5.82;;;;;;;;;;5076439;28;20489;-82
2021/09/09 01:18:58;;;;;;;10.00;6.25;;;;;;;;;;5076073;28;20507;-83
2021/09/09 01:21:24;;;;;;;10.85;5.88;;;;;;;;;;5076526;28;20040;-83
2021/09/09 01:23:52;;;;;;;11.05;6.00;;;;;;;;;;5076732;28;20036;-83
2021/09/09 01:26:18;;;;;;;8.82;6.30;;;;;;;;;;5068941;28;20033;-83
2021/09/09 01:28:44;;;;;;;9.73;6.68;;;;;;;;;;5056794;28;20067;-83
2021/09/09 01:31:10;;;;;;;8.20;5.88;;;;;;;;;;5043145;28;20033;-83
2021/09/09 01:33:36;;;;;;;12.27;6.10;;;;;;;;;;5077152;28;20082;-83
2021/09/09 01:36:02;;;;;;;7.88;6.18;;;;;;;;;;5077710;28;20043;-83
2021/09/09 01:38:28;;;;;;;9.05;6.53;;;;;;;;;;5079868;28;20083;-84
2021/09/09 01:40:53;;;;;;;12.88;6.22;;;;;;;;;;5070070;28;20107;-83
2021/09/09 01:43:20;;;;;;;8.10;6.65;;;;;;;;;;5078495;28;20032;-83
2021/09/09 01:45:45;;;;;;;7.88;5.70;;;;;;;;;;5076616;28;20044;-83
2021/09/09 01:48:12;;;;;;;10.77;6.60;;;;;;;;;;5076779;28;20033;-82
2021/09/09 01:50:38;;;;;;;8.98;6.57;;;;;;;;;;5056672;28;20029;-81
2021/09/09 01:53:04;;;;;;;9.82;6.78;;;;;;;;;;5075716;28;20024;-82
2021/09/09 01:55:30;;;;;;;7.95;6.43;;;;;;;;;;5079279;28;20037;-82
2021/09/09 01:57:56;;;;;;;10.93;6.55;;;;;;;;;;5080725;28;20119;-82
2021/09/09 02:00:22;;;;;;;7.93;6.40;;;;;;;;;;5060038;28;20553;-82
2021/09/09 02:02:48;;;;;;;9.20;6.80;;;;;;;;;;5075921;28;20482;-82
2021/09/09 02:05:14;;;;;;;8.55;6.28;;;;;;;;;;5075855;28;20029;-83
2021/09/09 02:07:41;;;;;;;8.75;6.75;;;;;;;;;;5073647;28;20025;-82
2021/09/09 02:10:07;;;;;;;11.38;6.65;;;;;;;;;;5056187;28;20082;-83
2021/09/09 02:12:34;;;;;;;10.70;7.30;;;;;;;;;;5074801;28;20024;-82
2021/09/09 02:15:00;;;;;;;9.90;7.07;;;16.70;99.90;;;;;;5077899;28;20050;-82
2021/09/09 02:17:26;;;;;;;8.45;6.97;;;;;;;;;;5076722;28;20025;-82
2021/09/09 02:19:52;;;;;;;9.60;7.07;;;;;;;;;;5076200;28;20021;-82
2021/09/09 02:22:18;;;;;;;8.10;6.45;;;;;;;;;;5074416;28;20032;-82
2021/09/09 02:24:47;;;;;;;10.43;7.55;;;;;;;;;;5074380;28;20039;-82
2021/09/09 02:27:14;;;;;;;8.65;7.20;;;;;;;;;;5089427;28;20031;-83
2021/09/09 02:29:40;;;;;;;8.45;7.00;;;;;;;;;;5102405;28;20103;-83
2021/09/09 02:32:06;;;;;;;8.80;6.25;;;;;;;;;;5088435;28;20103;-83
2021/09/09 02:34:32;;;;;;;8.98;6.97;;;;;;;;;;5078867;28;20384;-82
2021/09/09 02:36:58;;;;;;;8.13;6.82;;;;;;;;;;5059391;28;20064;-82
2021/09/09 02:39:24;;;;;;;10.48;7.18;;;;;;;;;;5054905;28;20029;-82
2021/09/09 02:41:50;;;;;;;9.45;7.22;;;;;;;;;;5066433;28;20036;-82
2021/09/09 02:44:16;;;;;;;7.75;6.57;;;;;;;;;;5076957;28;20036;-82
2021/09/09 02:46:42;;;;;;;9.55;6.88;;;;;;;;;;5075973;28;20043;-82
2021/09/09 02:49:08;;;;;;;9.35;7.43;;;;;;;;;;5074910;28;20032;-83
2021/09/09 02:51:34;;;;;;;10.18;7.57;;;;;;;;;;5075714;28;20032;-82
2021/09/09 02:54:00;;;;;;;11.57;7.13;;;;;;;;;;5060093;28;20084;-82
2021/09/09 02:56:26;;;;;;;9.63;7.13;;;;;;;;;;5084591;28;20032;-82
2021/09/09 02:58:53;;;;;;;11.73;7.07;;;;;;;;;;5096578;28;20020;-82
2021/09/09 03:01:19;;;;;;;8.90;6.95;;;;;;;;;;5089749;28;20509;-82
2021/09/09 03:03:45;;;;;;;11.15;7.00;;;;;;;;;;5075953;28;20393;-82
2021/09/09 03:06:11;;;;;;;9.88;6.90;;;;;;;;;;5058994;28;20029;-81
2021/09/09 03:08:37;;;;;;;11.55;7.45;;;;;;;;;;5076416;28;20037;-82
2021/09/09 03:11:03;;;;;;;11.20;7.88;;;;;;;;;;5083537;28;20032;-80
2021/09/09 03:13:29;;;;;;;9.68;7.20;;;;;;;;;;5088505;28;20036;-81
2021/09/09 03:15:55;;;;;;;8.93;7.55;;;;;;;;;;5070361;28;20115;-82
2021/09/09 03:18:21;;;;;;;8.45;6.75;;;;;;;;;;5067934;28;20028;-82
2021/09/09 03:20:47;;;;;;;9.18;6.68;;;;;;;;;;5074869;28;20136;-82
2021/09/09 03:23:13;;;;;;;8.85;6.78;;;;;;;;;;5076307;28;20048;-82
2021/09/09 03:25:39;;;;;;;8.43;7.30;;;;;;;;;;5075923;28;20343;-82
2021/09/09 03:28:05;;;;;;;10.27;7.13;;;;;;;;;;5076137;28;20040;-82
2021/09/09 03:30:31;;;;;;;10.38;7.00;;;;;;;;;;5075358;28;20021;-82
2021/09/09 03:32:57;;;;;;;9.60;7.20;;;;;;;;;;5075570;28;20025;-83
2021/09/09 03:35:23;;;;;;;13.13;7.47;;;;;;;;;;5076129;28;20033;-82
2021/09/09 03:37:49;;;;;;;8.52;6.65;;;;;;;;;;5076330;28;20035;-82
2021/09/09 03:40:15;;;;;;;12.35;7.10;;;;;;;;;;5057639;28;20624;-82
2021/09/09 03:42:41;;;;;;;9.40;6.93;;;;;;;;;;5058408;28;20031;-82
2021/09/09 03:45:09;;;;;;;8.82;6.75;;;;;;;;;;5076237;28;20110;-82
2021/09/09 03:47:35;;;;;;;10.60;7.20;;;;;;;;;;5076545;28;20037;-82
2021/09/09 03:50:01;;;;;;;9.88;6.88;;;;;;;;;;5070513;28;20389;-82
2021/09/09 03:52:27;;;;;;;8.38;7.20;;;;;;;;;;5056896;28;20047;-82
2021/09/09 03:54:53;;;;;;;12.43;7.38;;;;;;;;;;5068611;28;20028;-82
2021/09/09 03:57:19;;;;;;;12.30;7.45;;;;;;;;;;5071780;28;20039;-82
2021/09/09 03:59:45;;;;;;;10.45;7.25;;;;;;;;;;5066076;28;20033;-82
2021/09/09 04:02:11;;;;;;;10.65;7.57;;;;;;;;;;5070502;28;20425;-82
2021/09/09 04:04:37;;;;;;;12.35;7.75;;;;;;;;;;5076406;28;20024;-82
2021/09/09 04:07:03;;;;;;;14.77;8.07;;;;;;;;;;5058824;28;20028;-81
2021/09/09 04:09:29;;;;;;;9.93;7.50;;;;;;;;;;5075954;28;20150;-82
2021/09/09 04:11:55;;;;;;;10.07;7.45;;;;;;;;;;5075788;28;20031;-82
2021/09/09 04:14:21;;;;;;;9.88;7.32;;;;;;;;;;5076824;28;20029;-82
2021/09/09 04:16:47;;;;;;;9.50;7.32;;;;;;;;;;5076457;28;20017;-82
2021/09/09 04:19:13;;;;;;;9.30;7.95;;;;;;;;;;5075817;28;20570;-82
2021/09/09 04:21:39;;;;;;;10.32;7.03;;;;;;;;;;5041887;28;20033;-82
2021/09/09 04:24:05;;;;;;;10.45;7.72;;;;;;;;;;5057906;28;20036;-82
2021/09/09 04:26:31;;;;;;;10.95;7.72;;;;;;;;;;5074883;28;20028;-82
2021/09/09 04:28:57;;;;;;;12.65;7.57;;;;;;;;;;5055254;28;20037;-81
2021/09/09 04:31:23;;;;;;;12.55;7.55;;;;;;;;;;5045869;28;20524;-82
2021/09/09 04:33:49;;;;;;;8.20;7.30;;;;;;;;;;5060059;28;20025;-82
2021/09/09 04:36:15;;;;;;;14.45;7.80;;;;;;;;;;5079441;28;20035;-82
2021/09/09 04:38:41;;;;;;;12.43;7.90;;;;;;;;;;5079288;28;20028;-82
2021/09/09 04:41:07;;;;;;;10.32;7.50;;;;;;;;;;5041062;28;20029;-82
2021/09/09 04:43:34;;;;;;;10.98;8.18;;;;;;;;;;5060249;28;20025;-82
2021/09/09 04:46:01;;;;;;;10.60;7.25;;;;;;;;;;5060400;28;20394;-82
2021/09/09 04:48:27;;;;;;;11.35;7.75;;;;;;;;;;5060087;28;20028;-82
2021/09/09 04:50:53;;;;;;;9.85;8.00;;;;;;;;;;5078799;28;20021;-82
2021/09/09 04:53:19;;;;;;;11.23;8.07;;;;;;;;;;5079840;28;20481;-82
2021/09/09 04:55:44;;;;;;;11.15;7.68;;;;;;;;;;5058262;28;20042;-82
2021/09/09 04:58:10;;;;;;;11.60;8.00;;;;;;;;;;5059390;28;20036;-82
2021/09/09 05:00:36;;;;;;;11.82;8.52;;;;;;;;;;5058977;28;20029;-82
2021/09/09 05:03:02;;;;;;;15.48;7.75;;;;;;;;;;5078715;28;20029;-80
2021/09/09 05:05:28;;;;;;;10.98;8.07;;;;;;;;;;5061066;28;20475;-80
2021/09/09 05:07:55;;;;;;;14.35;7.88;;;;;;;;;;5079770;28;20521;-81
2021/09/09 05:10:21;;;;;;;14.00;7.53;;;;;;;;;;5041896;28;20037;-81
2021/09/09 05:12:47;;;;;;;10.52;7.70;;;;;;;;;;5077628;28;20392;-79
2021/09/09 05:15:13;;;;;;;11.30;7.70;;;;;;;;;;5078542;28;20031;-79
2021/09/09 05:17:39;;;;;;;9.25;8.07;;;;;;;;;;5078664;28;20561;-79
2021/09/09 05:20:05;;;;;;;10.68;8.30;;;;;;;;;;5079137;28;20428;-79
2021/09/09 05:22:33;;;;;;;9.50;7.85;;;;;;;;;;5077472;28;20446;-79
2021/09/09 05:24:59;;;;;;;11.73;8.20;;;;;;;;;;5078826;28;20039;-79
2021/09/09 05:27:25;;;;;;;15.63;7.97;;;;;;;;;;5060433;28;20408;-78
2021/09/09 05:29:51;;;;;;;10.18;7.45;;;;;;;;;;5062029;28;20037;-81
2021/09/09 05:32:17;;;;;;;12.10;7.75;;;;;;;;;;5073051;28;20027;-81
2021/09/09 05:34:43;;;;;;;8.57;6.60;;;;;;;;;;5078598;28;20539;-82
2021/09/09 05:37:09;;;;;;;11.32;7.30;;;;;;;;;;5078804;28;20635;-82
2021/09/09 05:39:35;;;;;;;8.93;6.57;;;;;;;;;;5077873;28;20094;-82
2021/09/09 05:42:01;;;;;;;11.07;7.57;;;;;;;;;;5072365;28;20028;-82
2021/09/09 05:44:27;;;;;;;9.13;7.32;;;;;;;;;;5082703;28;20063;-81
2021/09/09 05:46:54;;;;;;;9.75;7.38;;;;;;;;;;5085224;28;20028;-84
2021/09/09 05:49:20;;;;;;;10.57;6.63;;;;;;;;;;5063493;28;20025;-84
2021/09/09 05:51:46;;;;;;;8.90;6.55;;;;;;;;;;5078152;28;20074;-84
2021/09/09 05:54:12;;;;;;;10.68;6.63;;;;;;;;;;5062209;28;20482;-83
2021/09/09 05:56:38;;;;;;;8.65;6.72;;;;;;;;;;5071568;28;20035;-84
2021/09/09 05:59:04;;;;;;;9.45;7.10;;;;;;;;;;5079834;28;20085;-83
2021/09/09 06:01:30;;;;;;;9.00;6.78;;;;;;;;;;5071428;28;20123;-83
2021/09/09 06:03:56;;;;;;;9.45;6.95;;;;;;;;;;5061786;28;20453;-84
2021/09/09 06:06:25;;;;;;;13.15;6.70;;;;;;;;;;5050082;28;20028;-82
2021/09/09 06:08:51;;;;;;;8.32;7.20;;;;;;;;;;5081331;28;20025;-82
2021/09/09 06:11:17;;;;;;;10.52;6.30;;;;;;;;;;5081065;28;20040;-83
2021/09/09 06:13:43;;;;;;;10.70;6.65;;;;;;;;;;5075507;28;20025;-80
2021/09/09 06:16:09;;;;;;;8.95;6.32;;;;;;;;;;5087014;28;20040;-79
2021/09/09 06:18:35;;;;;;;10.50;6.95;;;;;;;;;;5091737;28;20113;-80
2021/09/09 06:21:01;;;;;;;9.05;6.68;;;;;;;;;;5078215;28;20024;-80
2021/09/09 06:23:28;;;;;;;11.55;7.03;;;;;;;;;;5078122;28;20083;-79
2021/09/09 06:25:54;;;;;;;9.60;6.60;;;;;;;;;;5080840;28;20039;-79
2021/09/09 06:28:20;;;;;;;8.55;6.70;;;;;;;;;;5042178;28;20017;-80
2021/09/09 06:30:46;;;;;;;7.40;5.85;;;;;;;;;;5057836;28;20052;-80
2021/09/09 06:33:12;;;;;;;13.00;7.10;;;;;;;;;;5053810;28;20477;-83
2021/09/09 06:35:38;;;;;;;10.60;6.50;;;;;;;;;;5080678;28;20045;-82
2021/09/09 06:38:04;;;;;;;9.85;6.18;;;;;;;;;;5085448;28;20028;-82
2021/09/09 06:40:30;;;;;;;11.35;8.30;;;;;;;;;;5077700;28;20024;-83
2021/09/09 06:42:56;;;;;;;8.93;6.90;;;;;;;;;;5080059;28;20024;-82
2021/09/09 06:45:22;;;;;;;11.40;7.18;;;;;;;;;;5078209;28;20048;-82
2021/09/09 06:47:48;;;;;;;8.63;6.10;;;;;;;;;;5074823;28;20016;-82
2021/09/09 06:50:14;;;;;;;11.48;6.75;;;;;;;;;;5067777;28;20040;-82
2021/09/09 06:52:40;;;;;;;9.82;6.65;;;16.90;99.90;;;;;;5056759;28;20033;-82
2021/09/09 06:55:06;;;;;;;13.57;7.13;;;18.30;99.90;;;;;;5055463;28;20115;-82
2021/09/09 06:57:31;;;;;;;11.43;7.00;;;18.30;99.90;;;;;;5055877;28;20048;-81
2021/09/09 06:59:57;;;;;;;13.15;6.97;;;18.50;99.90;;;;;;5072866;28;20036;-82
2021/09/09 07:02:23;;;;;;;10.77;6.30;;;19.40;99.90;;;;;;5076749;28;20037;-82
2021/09/09 07:04:48;;;;;;;11.55;6.97;;;19.20;99.90;;;;;;5045006;28;20112;-83
2021/09/09 07:07:15;;;;;;;9.35;6.57;;;;;;;;;;5063320;28;20374;-82
2021/09/09 07:09:41;;;;;;;11.23;7.15;;;;;;;;;;5075602;28;20400;-82
2021/09/09 07:12:07;;;;;;;8.23;6.53;;;;;;;;;;5077575;28;20111;-80
2021/09/09 07:14:33;;;;;;;11.45;6.53;;;;;;;;;;5053576;28;20029;-83
2021/09/09 07:16:59;;;;;;;10.70;6.90;;;;;;;;;;5057819;28;20081;-82
2021/09/09 07:19:25;;;;;;;8.30;6.47;;;;;;;;;;5056954;28;20037;-82
2021/09/09 07:21:51;;;;;;;12.52;5.95;;;;;;;;;;5060814;28;20016;-83
2021/09/09 07:24:18;;;;;;;12.80;6.35;;;;;;;;;;5067939;28;20032;-82
2021/09/09 07:26:47;;;;;;;17.08;6.35;;;;;;;;;;5078246;28;20055;-82
2021/09/09 07:29:14;;;;;;;8.73;6.38;;;;;;;;;;5039460;28;20033;-82
2021/09/09 07:31:44;;;;;;;7.97;6.00;;;;;;;;;;5062270;28;20048;-82
2021/09/09 07:34:10;;;;;;;8.07;5.47;;;;;;;;;;5066963;28;20017;-82
2021/09/09 07:36:36;;;;;;;8.60;5.47;;;;;;;;;;5071745;28;20394;-82
2021/09/09 07:39:02;;;;;;;11.23;7.05;;;;;;;;;;5063198;28;20025;-82
2021/09/09 07:41:28;;;;;;;14.70;6.20;;;;;;;;;;5052109;28;20038;-83
2021/09/09 07:43:55;;;;;;;8.82;6.13;;;;;;;;;;5058240;28;20039;-83
2021/09/09 07:46:20;;;;;;;8.80;6.07;;;;;;;;;;5092895;28;20028;-82
2021/09/09 07:48:46;;;;;;;12.70;6.00;;;;;;;;;;5049098;28;20032;-83
2021/09/09 07:51:15;;;;;;;8.23;5.32;;;;;;;;;;5065148;28;20040;-82
2021/09/09 07:53:41;;;;;;;9.05;5.68;;;;;;;;;;5070318;28;20560;-83
2021/09/09 07:56:08;;;;;;;8.75;5.85;;;;;;;;;;5076369;28;20106;-82
2021/09/09 07:58:34;;;;;;;9.07;6.30;;;;;;;;;;5076076;28;20404;-82
2021/09/09 08:01:00;;;;;;;12.45;6.50;;;;;;;;;;5063362;28;20040;-82
2021/09/09 08:03:26;;;;;;;7.53;5.93;;;;;;;;;;5069545;28;20098;-82
2021/09/09 08:05:53;;;;;;;7.85;6.10;;;;;;;;;;5075675;28;20486;-82
2021/09/09 08:08:19;;;;;;;8.80;6.53;;;;;;;;;;5074073;28;20033;-82
2021/09/09 08:10:45;;;;;;;9.48;6.00;;;;;;;;;;5080868;28;20040;-82
2021/09/09 08:13:11;;;;;;;7.78;6.18;;;;;;;;;;5079850;28;20016;-82
2021/09/09 08:15:38;;;;;;;10.57;6.88;;;;;;;;;;5057443;28;20047;-82
2021/09/09 08:18:04;;;;;;;8.57;6.60;;;;;;;;;;5065440;28;20033;-82
2021/09/09 08:20:30;;;;;;;8.70;6.35;;;;;;;;;;5060627;28;20035;-82
2021/09/09 08:22:56;;;;;;;10.80;6.22;;;;;;;;;;5060648;28;20476;-82
2021/09/09 08:25:22;;;;;;;9.68;6.57;;;;;;;;;;5043119;28;20055;-82
2021/09/09 08:27:49;;;;;;;9.00;6.03;;;;;;;;;;5042961;28;20051;-82
2021/09/09 08:30:15;;;;;;;11.63;6.47;;;;;;;;;;5060354;28;20025;-82
2021/09/09 08:32:41;;;;;;;13.40;6.88;;;;;;;;;;5061510;28;20056;-82
2021/09/09 08:35:08;;;;;;;11.43;6.57;;;;;;;;;;5042297;28;20033;-82
2021/09/09 08:37:35;;;;;;;10.43;6.05;;;;;;;;;;5064514;28;20408;-81
2021/09/09 08:40:01;;;;;;;7.57;6.22;;;;;;;;;;5063985;28;20057;-82
2021/09/09 08:42:27;;;;;;;11.55;6.60;;;;;;;;;;5083336;28;20025;-80
2021/09/09 08:44:53;;;;;;;9.90;6.75;;;;;;;;;;5083046;28;20108;-81
2021/09/09 08:47:21;;;;;;;12.40;6.20;;;;;;;;;;5079981;28;20463;-81
2021/09/09 08:49:47;;;;;;;9.48;5.53;;;;;;;;;;5080066;28;20634;-81
2021/09/09 08:52:13;;;;;;;7.72;5.47;;;;;;;;;;5068017;28;20040;-81
2021/09/09 08:54:39;;;;;;;9.63;5.78;;;;;;;;;;5060042;28;20021;-81
2021/09/09 08:57:06;;;;;;;9.32;5.15;;;;;;;;;;5059575;28;20081;-80
2021/09/09 08:59:32;;;;;;;10.02;5.15;;;;;;;;;;5059069;28;20044;-81
2021/09/09 09:02:04;;;;;;;9.13;5.28;;;;;;;;;;5068550;28;20104;-81
2021/09/09 09:07:35;;;;;;;11.13;6.28;;;;;;;;;;5084552;28;20050;-82
2021/09/09 09:10:03;;;;;;;7.35;5.10;;;;;;;;;;5083001;28;20039;-82
2021/09/09 09:12:38;;;;;;;6.90;4.60;;;;;;;;;;5079281;28;20029;-81
2021/09/09 09:15:19;;;;;;;8.57;5.07;;;;;;;;;;5081029;28;20099;-81
2021/09/09 09:17:52;;;;;;;8.50;5.00;;;;;;;;;;5083705;28;20052;-81
2021/09/09 09:20:18;;;;;;;7.68;4.53;;;;;;;;;;5086876;28;20016;-80
2021/09/09 09:22:45;;;;;;;7.35;4.63;;;;;;;;;;5068552;28;20036;-80
2021/09/09 09:25:11;;;;;;;7.93;4.50;;;;;;;;;;5080660;28;20081;-82
2021/09/09 09:27:45;;;;;;;12.90;4.95;;;;;;;;;;5079221;28;20040;-82
2021/09/09 09:30:12;;;;;;;7.25;3.60;;;;;;;;;;5092294;28;20020;-83
2021/09/09 09:32:48;;;;;;;10.32;3.70;;;;;;;;;;5082028;28;20029;-82
2021/09/09 09:35:17;;;;;;;12.75;3.55;;;19.30;99.90;;;;;;5078519;28;20028;-81
2021/09/09 09:38:07;;;;;;;11.93;3.53;;;27.40;99.90;;;;;;5080149;28;20021;-82
2021/09/09 09:40:36;;;;;;;9.63;3.50;;;;;;;;;;5079163;28;20052;-81
2021/09/09 09:43:12;;;;;;;6.45;3.40;;;;;;;;;;5081475;28;20039;-83
2021/09/09 09:45:48;;;;;;;10.88;3.60;;;;;;;;;;5099411;28;20028;-82
2021/09/09 09:48:27;;;;;;;6.63;3.25;;;;;;;;;;5084281;28;20477;-81
2021/09/09 09:50:53;;;;;;;3.85;3.20;;;;;;;;;;5073041;28;20033;-82
2021/09/09 09:53:21;;;;;;;4.07;3.00;;;;;;;;;;5058317;28;20436;-80
2021/09/09 09:55:47;;;;;;;5.45;3.40;;;;;;;;;;5040303;28;20159;-81
2021/09/09 09:58:14;;;;;;;6.47;3.17;;;;;;;;;;5058530;28;20029;-81
2021/09/09 10:00:40;;;;;;;4.68;3.10;;;;;;;;;;5079173;28;20032;-80
2021/09/09 10:03:06;;;;;;;6.40;3.08;;;;;;;;;;5059450;28;20060;-80
2021/09/09 10:05:35;;;;;;;7.72;2.60;;;;;;;;;;5069553;28;20516;-80
2021/09/09 10:08:01;;;;;;;6.45;2.75;;;27.30;99.90;;;;;;5071573;28;20028;-79
2021/09/09 10:10:27;;;;;;;5.43;2.80;;;29.20;94.50;;;;;;5073291;28;20025;-79
2021/09/09 10:12:53;;;;;;;6.93;2.90;;;28.80;94.20;;;;;;5073264;28;20052;-78
2021/09/09 10:15:21;;;;;;;5.78;2.50;;;28.90;93.90;;;;;;5073785;28;20027;-79
2021/09/09 10:17:49;;;;;;;5.97;2.72;;;28.30;93.80;;;;;;5073306;28;20020;-79
2021/09/09 10:20:36;;;;;;;7.18;2.60;;;27.70;95.10;;;;;;5056559;28;20025;-78
2021/09/09 10:23:08;;;;;;;4.68;2.20;;;28.00;95.10;;;;;;5077471;28;20020;-79
2021/09/09 10:25:49;;;;;;;6.15;2.97;;;28.20;94.40;;;;;;5093891;28;20020;-79
2021/09/09 10:28:48;;;;;;;3.63;2.38;;;27.70;94.50;;;;;;5058386;28;20127;-79
2021/09/09 10:31:15;;;;;;;8.75;2.85;;;27.70;94.40;;;;;;5052217;28;20044;-79
2021/09/09 10:33:44;;;;;;;10.75;2.90;;;28.50;94.00;;;;;;5092991;28;20533;-78
2021/09/09 10:36:35;;;;;;;5.50;2.90;;;28.30;93.50;;;;;;5068542;28;20113;-78
2021/09/09 10:39:01;;;;;;;5.45;2.85;;;28.70;93.10;;;;;;5052956;28;20485;-79
2021/09/09 10:41:29;;;;;;;5.00;2.38;;;29.10;92.90;;;;;;5070633;28;20029;-79
2021/09/09 10:44:06;;;;;;;9.10;3.05;;;28.80;92.50;;;;;;5072809;28;20102;-79
2021/09/09 10:46:44;;;;;;;5.10;2.80;;;28.30;92.90;;;;;;5073657;28;20570;-78
2021/09/09 10:49:21;;;;;;;4.05;2.33;;;28.40;92.90;;;;;;5072933;28;20033;-78
2021/09/09 10:52:06;;;;;;;10.20;2.75;;;28.80;92.90;;;;;;5072384;28;20028;-78
2021/09/09 10:54:34;;;;;;;5.38;2.42;;;28.30;92.70;;;;;;5069591;28;20040;-79
2021/09/09 10:57:16;;;;;;;6.07;2.60;;;27.90;93.10;;;;;;5053413;28;20024;-79
2021/09/09 10:59:50;;;;;;;4.63;2.75;;;28.40;93.20;;;;;;5055177;28;20020;-80
2021/09/09 11:02:17;;;;;;;7.60;2.95;;;28.80;92.70;;;;;;5038077;28;20033;-82
2021/09/09 11:04:44;;;;;;;3.58;2.53;;;29.40;91.70;;;;;;5057527;28;20083;-84
2021/09/09 11:07:24;;;;;;;7.30;2.83;;;29.90;91.10;;;;;;5056346;28;20459;-83
2021/09/09 11:10:01;;;;;;;4.82;2.50;;;30.10;90.60;;;;;;5055715;28;20049;-85
2021/09/09 11:12:26;;;;;;;10.70;3.15;;;30.70;90.30;;;;;;5038935;28;20057;-84
2021/09/09 11:14:52;;;;;;;3.78;2.22;;;30.50;90.00;;;;;;5039046;28;20482;-85
2021/09/09 11:17:18;;;;;;;5.43;2.83;;;29.20;90.70;;;;;;5057223;28;20599;-85
2021/09/09 11:19:44;;;;;;;5.07;2.55;;;29.00;91.90;;;;;;5056639;28;20394;-84
2021/09/09 11:22:09;;;;;;;8.30;2.90;;;29.30;91.10;;;;;;5057202;28;20024;-85
2021/09/09 11:24:36;;;;;;;4.18;2.30;;;29.30;91.10;;;;;;5056786;28;20033;-85
2021/09/09 11:27:10;;;;;;;4.93;2.85;;;29.50;91.00;;;;;;5056925;28;20420;-84
2021/09/09 11:29:36;;;;;;;7.15;2.90;;;30.10;90.90;;;;;;5057004;28;20025;-84
2021/09/09 11:32:02;;;;;;;4.22;2.90;;;31.00;88.20;;;;;;5056615;28;20497;-84
2021/09/09 11:34:30;;;;;;;7.78;3.03;;;30.60;88.20;;;;;;5065128;28;20032;-83
2021/09/09 11:36:59;;;;;;;7.72;3.17;;;30.00;88.90;;;;;;5096982;28;20103;-84
2021/09/09 11:39:30;;;;;;;9.60;2.75;;;29.60;88.30;;;;;;5096372;28;20028;-83
2021/09/09 11:41:56;;;;;;;4.80;3.13;;;29.60;88.70;;;;;;5097572;28;20070;-83
2021/09/09 11:44:28;;;;;;;4.22;3.00;;;29.60;89.00;;;;;;5096902;28;20028;-84
2021/09/09 11:46:56;;;;;;;6.22;3.05;;;29.30;89.70;;;;;;5049953;28;20056;-84
2021/09/09 11:49:27;;;;;;;5.93;3.30;;;29.70;87.60;;;;;;5055860;28;20524;-84
2021/09/09 11:51:58;;;;;;;6.57;2.80;;;29.30;87.00;;;;;;5056228;28;20067;-84
2021/09/09 11:54:29;;;;;;;5.40;3.20;;;28.90;87.10;;;;;;5038416;28;20108;-84
2021/09/09 11:57:13;;;;;;;6.40;3.30;;;28.70;88.20;;;;;;5056543;28;20024;-83
2021/09/09 11:59:50;;;;;;;4.72;3.17;;;28.10;88.60;;;;;;5055274;28;20093;-83
2021/09/09 12:02:28;;;;;;;4.18;3.03;;;28.20;89.20;;;;;;5056016;28;20086;-84
2021/09/09 12:04:55;;;;;;;5.53;3.38;;;27.80;89.60;;;;;;5089119;28;20477;-85
2021/09/09 12:07:24;;;;;;;6.30;3.60;;;26.70;91.50;;;;;;5096194;28;20032;-84
2021/09/09 12:09:59;;;;;;;6.53;3.28;;;26.30;92.80;;;;;;5077459;28;20112;-85
2021/09/09 12:12:29;;;;;;;10.57;3.20;;;26.30;93.50;;;;;;5096490;28;20038;-86
2021/09/09 12:15:02;;;;;;;4.32;2.90;;;26.80;93.00;;;;;;5096269;28;20051;-85
2021/09/09 12:17:28;;;;;;;7.93;3.20;;;27.80;91.90;;;;;;5077956;28;20035;-84
2021/09/09 12:19:55;;;;;;;6.95;3.30;;;28.20;91.00;;;;;;5081975;28;20082;-84
2021/09/09 12:22:21;;;;;;;7.15;2.53;;;28.30;91.40;;;;;;5079634;28;20020;-84
2021/09/09 12:24:47;;;;;;;7.38;2.88;;;29.30;90.10;;;;;;5076486;28;20029;-82
2021/09/09 12:27:17;;;;;;;6.20;2.80;;;30.10;85.80;;;;;;5075964;28;20027;-82
2021/09/09 12:29:44;;;;;;;7.97;2.55;;;29.90;85.20;;;;;;5057839;28;20103;-82
2021/09/09 12:32:30;;;;;;;4.22;2.65;;;30.30;85.00;;;;;;5075869;28;20095;-81
2021/09/09 12:35:20;;;;;;;7.15;2.85;;;30.40;82.30;;;;;;5059743;28;20025;-83
2021/09/09 12:38:08;;;;;;;7.20;3.30;;;29.60;83.30;;;;;;5055881;28;20060;-82
2021/09/09 12:40:46;;;;;;;5.60;3.22;;;30.10;82.30;;;;;;5055889;28;20047;-81
2021/09/09 12:43:23;;;;;;;4.75;3.08;;;29.60;82.30;;;;;;5064290;28;20099;-82
2021/09/09 12:45:49;;;;;;;4.80;3.38;;;28.90;84.40;;;;;;5082914;28;20190;-81
2021/09/09 12:48:15;;;;;;;7.80;3.15;;;28.30;85.60;;;;;;5080462;28;20057;-82
2021/09/09 12:51:19;;;;;;;6.75;3.22;;;28.00;86.60;;;;;;5092953;28;20473;-84
2021/09/09 12:53:45;;;;;;;6.72;3.22;;;28.30;85.20;;;;;;5075996;28;20036;-84
2021/09/09 12:56:11;;;;;;;6.95;3.00;;;28.60;85.50;;;;;;5046959;28;20063;-82
2021/09/09 12:58:36;;;;;;;6.25;3.22;;;29.20;84.30;;;;;;5060570;28;20552;-83
2021/09/09 13:01:04;;;;;;;7.75;3.38;;;29.10;83.00;;;;;;5058959;28;20120;-82
2021/09/09 13:03:31;;;;;;;6.63;3.60;;;28.90;81.70;;;;;;5055094;28;20082;-82
2021/09/09 13:05:59;;;;;;;7.00;2.92;;;29.30;84.90;;;;;;5054992;28;20033;-82
2021/09/09 13:08:26;;;;;;;4.90;3.35;;;29.40;80.30;;;;;;5057000;28;20049;-82
2021/09/09 13:10:52;;;;;;;4.95;3.47;;;29.40;80.10;;;;;;5056637;28;20025;-82
2021/09/09 13:13:18;;;;;;;6.68;3.25;;;29.60;80.30;;;;;;5056303;28;20021;-82
2021/09/09 13:15:45;;;;;;;6.32;3.22;;;29.70;80.50;;;;;;5074816;28;20029;-84
2021/09/09 13:18:11;;;;;;;9.30;3.45;;;29.90;81.20;;;;;;5056825;28;20032;-82
2021/09/09 13:20:37;;;;;;;6.50;3.40;;;29.80;81.50;;;;;;5073793;28;20020;-82
2021/09/09 13:23:04;;;;;;;4.00;3.10;;;30.20;81.00;;;;;;5056834;28;20545;-83
2021/09/09 13:25:29;;;;;;;6.13;3.20;;;30.40;79.60;;;;;;5056532;28;20016;-83
2021/09/09 13:27:55;;;;;;;5.07;3.03;;;29.80;81.80;;;;;;5075008;28;20025;-86
2021/09/09 13:30:21;;;;;;;7.93;2.90;;;29.10;82.80;;;;;;5056046;28;20525;-85
2021/09/09 13:32:47;;;;;;;8.15;3.10;;;28.70;84.00;;;;;;5074770;28;20119;-85
2021/09/09 13:35:12;;;;;;;6.75;2.85;;;28.60;86.00;;;;;;5040011;28;20495;-83
2021/09/09 13:37:38;;;;;;;5.72;2.65;;;28.40;86.50;;;;;;5037066;28;20168;-84
2021/09/09 13:40:04;;;;;;;6.97;2.97;;;28.20;85.30;;;;;;5054373;28;20017;-84
2021/09/09 13:42:30;;;;;;;5.55;3.13;;;28.40;85.00;;;;;;5038638;28;20041;-84
2021/09/09 13:44:55;;;;;;;5.75;3.35;;;29.00;84.30;;;;;;5055374;28;20052;-85
2021/09/09 13:47:21;;;;;;;5.47;3.00;;;28.80;83.90;;;;;;5074398;28;20092;-84
2021/09/09 13:49:47;;;;;;;7.15;4.18;;;28.40;84.00;;;;;;5072407;28;20071;-85
2021/09/09 13:52:12;;;;;;;7.15;3.05;;;28.60;83.50;;;;;;5068736;28;20051;-85
2021/09/09 13:54:39;;;;;;;9.55;3.10;;;27.90;85.30;;;;;;5075358;28;20024;-83
2021/09/09 13:57:05;;;;;;;5.43;3.08;;;27.50;86.90;;;;;;5059610;28;20035;-85
2021/09/09 13:59:31;;;;;;;6.13;2.90;;;26.80;86.50;;;;;;5077773;28;20477;-82
2021/09/09 14:01:58;;;;;;;6.45;3.13;;;26.40;88.30;;;;;;5077119;28;20043;-81
2021/09/09 14:04:24;;;;;;;5.72;3.25;;;26.30;88.60;;;;;;5071581;28;20504;-82